createdAt,value
2022-09-16T05:31:45.082Z,14.95
2022-09-16T05:34:17.363Z,19.00
2022-09-16T05:36:47.669Z,11.70
2022-09-16T05:39:25.386Z,12.48
2022-09-16T05:42:01.111Z,9.10
2022-09-16T05:44:29.534Z,12.50
2022-09-16T05:46:57.142Z,15.40
2022-09-16T05:49:30.759Z,10.93
2022-09-16T05:51:57.969Z,12.35
2022-09-16T05:54:26.440Z,6.75
2022-09-16T05:56:57.234Z,8.90
2022-09-16T05:59:24.840Z,10.13
2022-09-16T06:01:53.671Z,20.05
2022-09-16T06:04:21.036Z,10.40
2022-09-16T06:06:48.646Z,10.65
2022-09-16T06:09:19.566Z,14.23
2022-09-16T06:11:49.577Z,16.25
2022-09-16T06:14:18.490Z,9.23
2022-09-16T06:16:46.702Z,16.52
2022-09-16T06:19:17.216Z,20.27
2022-09-16T06:21:45.995Z,23.90
2022-09-16T06:24:15.226Z,16.75
2022-09-16T06:26:45.218Z,21.25
2022-09-16T06:29:13.467Z,16.98
2022-09-16T06:31:41.574Z,19.38
2022-09-16T06:34:15.829Z,15.77
2022-09-16T06:36:45.333Z,10.95
2022-09-16T06:39:15.253Z,14.93
2022-09-16T06:41:42.970Z,20.90
2022-09-16T06:44:10.321Z,15.82
2022-09-16T06:46:37.645Z,12.00
2022-09-16T06:49:06.429Z,14.85
2022-09-16T06:51:36.266Z,19.05
2022-09-16T06:54:06.192Z,18.98
2022-09-16T06:56:36.063Z,19.27
2022-09-16T06:59:03.997Z,19.85
2022-09-16T07:01:32.644Z,15.20
2022-09-16T07:04:05.440Z,16.20
2022-09-16T07:07:04.934Z,23.23
2022-09-16T07:09:20.776Z,15.52
2022-09-16T07:11:47.945Z,26.75
2022-09-16T07:14:15.095Z,14.32
2022-09-16T07:16:42.414Z,14.55
2022-09-16T07:19:09.559Z,13.40
2022-09-16T07:21:36.724Z,16.55
2022-09-16T07:24:04.527Z,12.63
2022-09-16T07:26:34.259Z,13.43
2022-09-16T07:29:04.131Z,26.85
2022-09-16T07:31:34.250Z,26.48
2022-09-16T07:34:04.788Z,22.52
2022-09-16T07:36:37.908Z,24.85
2022-09-16T07:39:06.426Z,26.63
2022-09-16T07:41:37.168Z,24.15
2022-09-16T07:44:06.186Z,29.88
2022-09-16T07:46:36.117Z,31.13
2022-09-16T07:49:08.253Z,27.30
2022-09-16T07:51:36.140Z,22.50
2022-09-16T07:54:08.094Z,12.50
2022-09-16T07:56:42.326Z,22.17
2022-09-16T07:59:17.702Z,14.68
2022-09-16T08:01:48.024Z,13.90
2022-09-16T08:04:16.460Z,10.48
2022-09-16T08:06:44.378Z,10.85
2022-09-16T08:09:38.476Z,12.85
2022-09-16T08:12:03.029Z,10.48
2022-09-16T08:14:30.341Z,18.67
2022-09-16T08:16:57.761Z,13.10
2022-09-16T08:19:25.190Z,21.17
2022-09-16T08:21:52.443Z,12.60
2022-09-16T08:24:20.018Z,16.95
2022-09-16T08:26:47.338Z,15.75
2022-09-16T08:29:14.805Z,15.35
2022-09-16T08:31:42.180Z,9.38
2022-09-16T08:34:09.858Z,13.77
2022-09-16T08:36:37.590Z,9.23
2022-09-16T08:39:05.016Z,16.20
2022-09-16T08:42:12.192Z,7.80
2022-09-16T08:45:20.727Z,9.07
2022-09-16T08:48:13.284Z,6.50
2022-09-16T08:50:44.294Z,14.05
2022-09-16T08:53:24.360Z,8.98
2022-09-16T08:55:52.637Z,8.75
2022-09-16T08:58:25.065Z,14.60
2022-09-16T09:00:57.079Z,7.90
2022-09-16T09:03:41.145Z,9.17
2022-09-16T09:09:50.783Z,5.80
2022-09-16T09:12:45.939Z,6.60
2022-09-16T09:15:38.932Z,7.78
2022-09-16T09:18:22.811Z,9.98
2022-09-16T09:21:17.676Z,7.93
2022-09-16T09:24:19.717Z,8.10
2022-09-16T09:26:51.201Z,8.50
2022-09-16T09:29:48.214Z,9.27
2022-09-16T09:32:41.910Z,8.27
2022-09-16T09:35:41.262Z,7.07
2022-09-16T09:38:48.676Z,7.80
2022-09-16T09:41:27.780Z,5.55
2022-09-16T09:44:07.400Z,6.20
2022-09-16T09:46:40.409Z,4.53
2022-09-16T09:51:45.731Z,5.68
2022-09-16T09:54:28.457Z,7.05
2022-09-16T09:57:33.618Z,3.60
2022-09-16T10:00:22.140Z,8.57
2022-09-16T10:02:50.221Z,5.20
2022-09-16T10:08:00.374Z,5.53
2022-09-16T10:10:32.591Z,12.15
2022-09-16T10:13:09.578Z,13.27
2022-09-16T10:15:37.193Z,8.32
2022-09-16T10:18:14.778Z,7.35
2022-09-16T10:20:44.765Z,4.88
2022-09-16T10:23:15.966Z,10.13
2022-09-16T10:25:43.504Z,6.45
2022-09-16T10:28:24.498Z,8.27
2022-09-16T10:30:54.845Z,4.82
2022-09-16T10:33:28.129Z,7.07
2022-09-16T10:36:00.687Z,8.05
2022-09-16T10:38:39.054Z,12.80
2022-09-16T10:41:19.377Z,8.27
2022-09-16T10:43:52.429Z,7.22
2022-09-16T10:48:49.995Z,10.30
2022-09-16T10:51:34.685Z,7.45
2022-09-16T10:54:06.079Z,11.77
2022-09-16T10:56:46.528Z,6.30
2022-09-16T10:59:15.465Z,10.38
2022-09-16T11:02:09.445Z,11.30
2022-09-16T11:05:02.592Z,16.95
2022-09-16T11:10:54.590Z,10.77
2022-09-16T11:14:02.157Z,10.82
2022-09-16T11:17:11.434Z,12.20
2022-09-16T11:19:54.862Z,7.78
2022-09-16T11:22:51.651Z,5.72
2022-09-16T11:28:40.579Z,6.20
2022-09-16T11:31:36.720Z,5.20
2022-09-16T11:34:30.052Z,5.05
2022-09-16T11:37:29.433Z,7.10
2022-09-16T11:43:42.330Z,10.00
2022-09-16T11:46:49.620Z,7.57
2022-09-16T11:49:52.765Z,5.75
2022-09-16T11:53:04.453Z,7.95
2022-09-16T11:59:04.365Z,8.88
2022-09-16T12:01:39.479Z,4.82
2022-09-16T12:04:44.760Z,7.13
2022-09-16T12:07:23.719Z,22.55
2022-09-16T12:10:15.612Z,17.63
2022-09-16T12:12:49.702Z,4.32
2022-09-16T12:15:22.983Z,5.65
2022-09-16T12:17:55.918Z,9.15
2022-09-16T12:20:29.962Z,4.10
2022-09-16T12:23:20.178Z,5.40
2022-09-16T12:26:01.398Z,4.55
2022-09-16T12:28:38.824Z,4.47
2022-09-16T12:31:17.950Z,9.65
2022-09-16T12:34:11.988Z,5.05
2022-09-16T12:36:44.211Z,6.13
2022-09-16T12:39:13.259Z,5.97
2022-09-16T12:42:09.190Z,11.38
2022-09-16T12:45:16.237Z,8.05
2022-09-16T12:48:11.352Z,4.28
2022-09-16T12:53:50.946Z,4.28
2022-09-16T12:56:58.278Z,3.80
2022-09-16T12:59:52.306Z,5.70
2022-09-16T13:02:22.878Z,4.30
2022-09-16T13:04:55.941Z,6.45
2022-09-16T13:10:16.053Z,9.57
2022-09-16T13:12:50.644Z,2.75
2022-09-16T13:15:31.549Z,5.38
2022-09-16T13:18:21.545Z,10.55
2022-09-16T13:20:53.579Z,6.43
2022-09-16T13:23:27.020Z,2.38
2022-09-16T13:26:05.567Z,11.95
2022-09-16T13:34:14.127Z,6.30
2022-09-16T13:36:42.153Z,9.65
2022-09-16T13:39:27.827Z,3.67
2022-09-16T13:41:55.391Z,8.10
2022-09-16T13:47:19.188Z,8.57
2022-09-16T13:49:52.208Z,6.28
2022-09-16T13:55:10.370Z,6.40
2022-09-16T13:58:02.007Z,2.63
2022-09-16T14:00:40.904Z,9.10
2022-09-16T14:03:48.143Z,2.13
2022-09-16T14:06:45.100Z,4.40
2022-09-16T14:09:47.143Z,9.15
2022-09-16T14:15:01.059Z,4.80
2022-09-16T14:17:39.028Z,5.38
2022-09-16T14:20:16.317Z,8.68
2022-09-16T14:22:45.278Z,7.80
2022-09-16T14:25:34.833Z,4.15
2022-09-16T14:28:22.064Z,9.23
2022-09-16T14:31:00.418Z,21.75
2022-09-16T14:33:38.200Z,4.78
2022-09-16T14:36:30.663Z,21.65
2022-09-16T14:41:54.621Z,3.78
2022-09-16T14:44:28.679Z,7.30
2022-09-16T14:47:08.825Z,5.07
2022-09-16T14:49:38.334Z,6.13
2022-09-16T14:52:15.982Z,5.93
2022-09-16T14:54:45.113Z,9.48
2022-09-16T14:57:24.650Z,13.35
2022-09-16T14:59:55.574Z,12.55
2022-09-16T15:02:43.912Z,10.98
2022-09-16T15:05:33.329Z,6.05
2022-09-16T15:08:14.002Z,5.40
2022-09-16T15:10:53.719Z,9.18
2022-09-16T15:13:25.649Z,19.35
2022-09-16T15:15:58.614Z,4.35
2022-09-16T15:21:04.914Z,6.72
2022-09-16T15:23:33.696Z,10.35
2022-09-16T15:26:14.279Z,10.88
2022-09-16T15:29:04.454Z,5.80
2022-09-16T15:31:37.240Z,13.60
2022-09-16T15:34:22.045Z,5.82
2022-09-16T15:36:55.487Z,3.47
2022-09-16T15:39:34.219Z,8.98
2022-09-16T15:42:11.192Z,6.05
2022-09-16T15:44:47.888Z,4.07
2022-09-16T15:47:34.083Z,5.88
2022-09-16T15:50:14.155Z,1.75
2022-09-16T15:55:59.587Z,4.25
2022-09-16T15:58:40.328Z,6.43
